createdAt,value
2024-03-05T00:00:51.086Z,58.35
2024-03-05T00:01:52.645Z,59.67
2024-03-05T00:02:54.184Z,62.00
2024-03-05T00:03:55.992Z,56.50
2024-03-05T00:04:57.653Z,59.30
2024-03-05T00:05:59.681Z,57.88
2024-03-05T00:07:01.266Z,62.58
2024-03-05T00:08:04.116Z,63.03
2024-03-05T00:09:06.490Z,58.08
2024-03-05T00:10:11.296Z,64.75
2024-03-05T00:11:13.045Z,61.63
2024-03-05T00:12:14.785Z,61.88
2024-03-05T00:13:16.459Z,64.53
2024-03-05T00:14:18.146Z,61.78
2024-03-05T00:15:19.821Z,56.85
2024-03-05T00:16:21.508Z,62.67
2024-03-05T00:17:24.912Z,62.40
2024-03-05T00:18:26.463Z,58.25
2024-03-05T00:19:28.110Z,65.60
2024-03-05T00:20:29.784Z,59.72
2024-03-05T00:21:32.985Z,58.38
2024-03-05T00:22:34.581Z,56.33
2024-03-05T00:23:36.124Z,60.58
2024-03-05T00:24:37.674Z,56.45
2024-03-05T00:25:40.105Z,57.35
2024-03-05T00:26:41.709Z,58.05
2024-03-05T00:27:43.997Z,58.75
2024-03-05T00:28:46.315Z,57.80
2024-03-05T00:29:49.078Z,61.25
2024-03-05T00:30:50.645Z,55.13
2024-03-05T00:31:52.208Z,59.50
2024-03-05T00:32:53.834Z,54.53
2024-03-05T00:33:56.793Z,59.55
2024-03-05T00:34:58.442Z,60.15
2024-03-05T00:35:59.972Z,62.10
2024-03-05T00:37:01.522Z,57.60
2024-03-05T00:38:06.508Z,60.67
2024-03-05T00:39:11.042Z,61.50
2024-03-05T00:40:12.860Z,59.47
2024-03-05T00:41:14.631Z,59.33
2024-03-05T00:42:16.847Z,60.47
2024-03-05T00:43:18.443Z,59.38
2024-03-05T00:44:20.004Z,58.80
2024-03-05T00:45:22.993Z,54.05
2024-03-05T00:46:26.185Z,59.72
2024-03-05T00:47:29.518Z,58.78
2024-03-05T00:48:31.073Z,62.72
2024-03-05T00:49:33.597Z,57.72
2024-03-05T00:50:35.936Z,62.08
2024-03-05T00:51:37.703Z,62.90
2024-03-05T00:52:39.292Z,67.28
2024-03-05T00:53:40.859Z,63.72
2024-03-05T00:54:42.403Z,65.30
2024-03-05T00:55:44.009Z,74.38
2024-03-05T00:56:46.660Z,71.93
2024-03-05T00:57:48.199Z,71.60
2024-03-05T00:58:51.476Z,79.80
2024-03-05T00:59:54.732Z,77.68
2024-03-05T01:00:56.392Z,78.35
2024-03-05T01:01:58.728Z,79.07
2024-03-05T01:03:00.358Z,80.68
2024-03-05T01:04:01.868Z,75.00
2024-03-05T01:05:06.568Z,72.45
2024-03-05T01:06:08.538Z,75.40
2024-03-05T01:07:11.323Z,75.25
2024-03-05T01:08:13.741Z,78.30
2024-03-05T01:09:19.322Z,72.07
2024-03-05T01:10:21.096Z,75.18
2024-03-05T01:11:22.800Z,73.78
2024-03-05T01:12:24.332Z,70.90
2024-03-05T01:13:28.149Z,72.82
2024-03-05T01:14:29.753Z,72.20
2024-03-05T01:15:31.696Z,72.18
2024-03-05T01:16:33.281Z,74.85
2024-03-05T01:17:34.921Z,74.30
2024-03-05T01:18:38.092Z,76.38
2024-03-05T01:19:39.729Z,75.32
2024-03-05T01:20:42.927Z,74.25
2024-03-05T01:21:44.551Z,72.72
2024-03-05T01:22:48.221Z,70.88
2024-03-05T01:23:49.986Z,75.20
2024-03-05T01:24:51.967Z,67.95
2024-03-05T01:25:53.967Z,73.43
2024-03-05T01:26:55.574Z,76.35
2024-03-05T01:27:59.140Z,75.82
2024-03-05T01:29:00.798Z,73.47
2024-03-05T01:30:02.437Z,75.97
2024-03-05T01:31:04.206Z,71.20
2024-03-05T01:32:06.190Z,71.40
2024-03-05T01:33:10.828Z,78.82
2024-03-05T01:34:12.666Z,73.97
2024-03-05T01:35:14.413Z,87.15
2024-03-05T01:36:17.121Z,78.38
2024-03-05T01:37:18.760Z,72.85
2024-03-05T01:38:21.634Z,75.78
2024-03-05T01:39:23.768Z,74.60
2024-03-05T01:40:25.969Z,80.70
2024-03-05T01:41:30.893Z,77.50
2024-03-05T01:42:33.865Z,75.93
2024-03-05T01:43:35.444Z,71.07
2024-03-05T01:44:37.060Z,73.60
2024-03-05T01:45:38.622Z,79.07
2024-03-05T01:46:41.310Z,71.15
2024-03-05T01:47:43.656Z,79.65
2024-03-05T01:48:45.928Z,72.30
2024-03-05T01:49:47.603Z,74.43
2024-03-05T01:50:49.274Z,70.68
2024-03-05T01:51:52.281Z,70.80
2024-03-05T01:52:54.263Z,70.93
2024-03-05T01:53:55.898Z,73.25
2024-03-05T01:55:11.250Z,79.18
2024-03-05T01:56:18.352Z,76.13
2024-03-05T01:57:22.747Z,77.90
2024-03-05T01:58:24.971Z,72.50
2024-03-05T01:59:26.973Z,73.25
2024-03-05T02:00:28.862Z,76.10
2024-03-05T02:01:32.233Z,77.38
2024-03-05T02:02:34.011Z,68.05
2024-03-05T02:03:36.874Z,79.43
2024-03-05T02:04:39.693Z,79.13
2024-03-05T02:05:44.191Z,71.45
2024-03-05T02:06:46.106Z,74.45
2024-03-05T02:07:48.624Z,74.72
2024-03-05T02:08:50.446Z,79.65
2024-03-05T02:09:55.224Z,82.68
2024-03-05T02:10:57.099Z,78.55
2024-03-05T02:11:59.915Z,96.03
2024-03-05T02:13:05.090Z,89.47
2024-03-05T02:14:06.658Z,90.95
2024-03-05T02:15:12.489Z,88.22
2024-03-05T02:16:14.944Z,89.25
2024-03-05T02:17:17.837Z,96.00
2024-03-05T02:18:19.547Z,86.85
2024-03-05T02:19:21.113Z,98.03
2024-03-05T02:20:22.763Z,97.78
2024-03-05T02:21:24.316Z,112.78
2024-03-05T02:22:25.952Z,98.43
2024-03-05T02:23:27.483Z,94.88
2024-03-05T02:24:29.594Z,92.65
2024-03-05T02:25:34.066Z,84.25
2024-03-05T02:26:35.739Z,94.20
2024-03-05T02:27:38.553Z,86.97
2024-03-05T02:28:40.875Z,91.88
2024-03-05T02:29:43.017Z,92.40
2024-03-05T02:30:45.131Z,99.05
2024-03-05T02:31:46.777Z,83.10
2024-03-05T02:32:48.499Z,83.75
2024-03-05T02:33:50.227Z,86.38
2024-03-05T02:34:55.486Z,74.35
2024-03-05T02:36:00.720Z,79.78
2024-03-05T02:37:02.362Z,78.82
2024-03-05T02:38:07.256Z,78.35
2024-03-05T02:39:08.984Z,76.53
2024-03-05T02:40:11.805Z,74.30
2024-03-05T02:41:13.436Z,75.25
2024-03-05T02:42:15.170Z,74.15
2024-03-05T02:43:18.917Z,74.70
2024-03-05T02:44:20.467Z,76.60
2024-03-05T02:45:22.073Z,79.72
2024-03-05T02:46:25.905Z,77.63
2024-03-05T02:47:27.561Z,73.35
2024-03-05T02:48:29.163Z,75.60
2024-03-05T02:49:30.783Z,84.57
2024-03-05T02:50:32.372Z,78.25
2024-03-05T02:51:33.945Z,76.78
2024-03-05T02:52:40.224Z,84.22
2024-03-05T02:53:42.127Z,77.78
2024-03-05T02:54:43.791Z,89.22
2024-03-05T02:55:45.623Z,93.78
2024-03-05T02:56:47.236Z,90.45
2024-03-05T02:57:48.843Z,93.05
2024-03-05T02:58:50.455Z,94.00
2024-03-05T02:59:55.315Z,92.57
2024-03-05T03:00:57.079Z,98.57
2024-03-05T03:01:58.704Z,109.97
2024-03-05T03:03:00.835Z,109.93
2024-03-05T03:04:02.344Z,114.50
2024-03-05T03:05:04.148Z,115.80
2024-03-05T03:06:05.874Z,123.10
2024-03-05T03:07:08.619Z,126.43
2024-03-05T03:08:10.188Z,121.85
2024-03-05T03:09:11.839Z,143.52
2024-03-05T03:10:13.880Z,142.70
2024-03-05T03:11:16.959Z,159.13
2024-03-05T03:12:18.549Z,150.88
2024-03-05T03:13:20.182Z,146.07
2024-03-05T03:14:22.487Z,164.50
2024-03-05T03:15:26.730Z,142.27
2024-03-05T03:16:28.711Z,170.93
2024-03-05T03:17:33.475Z,168.70
2024-03-05T03:18:37.214Z,157.43
2024-03-05T03:19:38.831Z,166.50
2024-03-05T03:20:41.083Z,159.80
2024-03-05T03:21:43.105Z,176.18
2024-03-05T03:22:46.647Z,165.02
2024-03-05T03:23:48.191Z,159.88
2024-03-05T03:24:49.816Z,162.18
2024-03-05T03:25:51.571Z,171.02
2024-03-05T03:26:53.600Z,216.13
2024-03-05T03:27:55.215Z,182.57
2024-03-05T03:28:57.079Z,195.63
2024-03-05T03:29:59.256Z,243.30
2024-03-05T03:31:01.616Z,201.57
2024-03-05T03:32:05.495Z,203.13
2024-03-05T03:33:07.135Z,176.88
2024-03-05T03:34:08.755Z,235.55
2024-03-05T03:35:11.181Z,258.20
2024-03-05T03:36:22.556Z,198.23
